Time;durP1;ratioP1;P1;durP2;ratioP2;P2;SDS_P1;SDS_P2;PMS_P1;PMS_P2;Temp;Humidity;BMP_temperature;BMP_pressure;BME280_temperature;BME280_humidity;BME280_pressure;Samples;Min_cycle;Max_cycle;Signal;HPM_P1;HPM_P2
2021/01/28 00:01:05;;;;;;;40.78;19.13;;;;;;;-4.53;87.48;94494.72;5009515;28;20065;-73
2021/01/28 00:03:32;;;;;;;35.67;16.73;;;;;;;-4.50;87.07;94499.53;5008851;28;20069;-73
2021/01/28 00:05:58;;;;;;;30.75;16.55;;;;;;;-4.46;87.32;94505.91;5008476;28;20053;-73
2021/01/28 00:08:25;;;;;;;35.22;17.73;;;;;;;-4.60;87.66;94488.63;5009492;28;20048;-73
2021/01/28 00:10:52;;;;;;;36.15;16.67;;;;;;;-4.49;87.26;94507.94;5009303;28;20461;-74
2021/01/28 00:13:18;;;;;;;33.72;16.20;;;;;;;-4.53;87.30;94499.81;5009868;28;20048;-73
2021/01/28 00:15:44;;;;;;;35.35;16.70;;;;;;;-4.55;87.46;94511.88;5033535;28;20056;-73
2021/01/28 00:18:13;;;;;;;33.92;16.27;;;;;;;-4.51;87.62;94513.16;5049035;28;20055;-73
2021/01/28 00:20:45;;;;;;;32.85;16.67;;;;;;;-4.49;87.32;94516.34;5048370;28;20120;-73
2021/01/28 00:23:12;;;;;;;38.10;17.38;;;;;;;-4.40;87.10;94521.53;5047555;28;20092;-73
2021/01/28 00:25:40;;;;;;;39.75;17.60;;;;;;;-4.49;87.28;94505.41;5047473;28;20044;-73
2021/01/28 00:28:09;;;;;;;31.42;16.27;;;;;;;-4.40;87.37;94518.97;5030063;28;20573;-73
2021/01/28 00:30:48;;;;;;;42.65;18.52;;;;;;;-4.46;87.49;94518.63;5048781;28;20040;-73
2021/01/28 00:33:18;;;;;;;31.80;16.05;;;;;;;-4.46;87.36;94521.16;5049157;28;20384;-73
2021/01/28 00:35:47;;;;;;;38.20;18.35;;;;;;;-4.49;87.47;94518.09;5048710;28;20049;-73
2021/01/28 00:38:23;;;;;;;39.38;17.60;;;;;;;-4.45;87.39;94507.53;5048482;28;20067;-73
2021/01/28 00:40:50;;;;;;;36.58;17.90;;;;;;;-4.37;87.53;94528.88;5048408;28;20057;-72
2021/01/28 00:43:17;;;;;;;35.67;17.60;;;;;;;-4.35;87.20;94517.59;5048576;28;20043;-73
2021/01/28 00:45:44;;;;;;;35.35;18.40;;;;;;;-4.44;87.53;94504.00;5030819;28;20399;-72
2021/01/28 00:48:13;;;;;;;38.83;17.17;;;;;;;-4.30;87.20;94519.72;5048540;28;20118;-73
2021/01/28 00:50:41;;;;;;;32.33;16.20;;;;;;;-4.37;87.10;94523.78;5048460;28;20574;-73
2021/01/28 00:53:11;;;;;;;33.67;17.25;;;;;;;-4.36;87.43;94526.16;5013831;28;20071;-73
2021/01/28 00:55:40;;;;;;;35.92;16.42;;;;;;;-4.38;87.60;94512.78;5048288;28;20060;-73
2021/01/28 00:58:17;;;;;;;31.75;15.38;;;;;;;-4.38;87.59;94517.09;5030041;28;20051;-73
2021/01/28 01:00:46;;;;;;;35.40;16.92;;;;;;;-4.38;87.54;94517.09;5029966;28;20112;-73
2021/01/28 01:03:16;;;;;;;31.48;14.65;;;;;;;-4.38;87.64;94517.09;5030208;28;20045;-73
2021/01/28 01:05:43;;;;;;;28.75;15.25;;;;;;;-4.43;87.46;94505.63;5048540;28;20052;-73
2021/01/28 01:08:13;;;;;;;32.10;15.68;;;;;;;-4.30;87.32;94519.72;5048234;28;20029;-73
2021/01/28 01:10:43;;;;;;;28.77;14.73;;;;;;;-4.30;87.29;94519.72;5029945;28;20044;-73
2021/01/28 01:13:14;;;;;;;31.92;16.58;;;;;;;-4.30;87.29;94515.41;5030029;28;20043;-72
2021/01/28 01:15:42;;;;;;;32.65;15.50;;;;;;;-4.29;87.18;94506.03;5047887;28;20056;-73
2021/01/28 01:18:15;;;;;;;34.03;16.27;;;;;;;-4.28;87.42;94517.81;5030301;28;20037;-73
2021/01/28 01:20:42;;;;;;;29.35;15.00;;;;;;;-4.27;87.62;94506.69;5030231;28;20036;-73
2021/01/28 01:23:11;;;;;;;34.00;17.05;;;;;;;-4.24;87.39;94508.94;5029325;28;20133;-72
2021/01/28 01:25:58;;;;;;;27.45;14.77;;;;;;;-4.24;87.37;94503.84;5045750;28;20415;-72
2021/01/28 01:28:27;;;;;;;31.45;15.55;;;;;;;-4.21;87.35;94498.47;5028637;28;20045;-72
2021/01/28 01:30:58;;;;;;;30.52;14.55;;;;;;;-4.34;86.82;94477.69;5047698;28;20033;-72
2021/01/28 01:33:26;;;;;;;32.72;15.77;;;;;;;-4.30;87.30;94504.44;5029767;28;20064;-72
2021/01/28 01:36:02;;;;;;;28.33;13.45;;;;;;;-4.21;87.14;94495.94;5029931;28;20136;-72
2021/01/28 01:38:31;;;;;;;26.25;13.35;;;;;;;-4.22;86.98;94507.03;5028554;28;20482;-73
2021/01/28 01:40:58;;;;;;;25.38;12.60;;;;;;;-4.22;86.86;94507.03;5047420;28;20132;-73
2021/01/28 01:43:26;;;;;;;28.35;14.57;;;;;;;-4.15;86.80;94502.97;5029578;28;20045;-72
2021/01/28 01:46:01;;;;;;;26.58;13.23;;;;;;;-4.19;86.87;94506.75;5029390;28;20059;-72
2021/01/28 01:48:35;;;;;;;24.42;13.38;;;;;;;-4.24;86.83;94503.84;5029612;28;20055;-72
2021/01/28 01:51:05;;;;;;;27.33;12.75;;;;;;;-4.22;87.10;94507.03;5047335;28;20039;-72
2021/01/28 01:53:41;;;;;;;30.80;13.43;;;;;;;-4.28;87.19;94500.00;5029334;28;20045;-72
2021/01/28 01:56:22;;;;;;;24.25;13.85;;;;;;;-4.28;87.26;94510.19;5047346;28;20399;-72
2021/01/28 01:58:55;;;;;;;29.38;14.07;;;;;;;-4.23;87.25;94511.34;5028106;28;20036;-72
2021/01/28 02:02:05;;;;;;;29.85;14.30;;;;;;;-4.26;87.20;94505.75;4965221;28;20570;-72
2021/01/28 02:05:22;;;;;;;29.45;13.13;;;;;;;-4.35;87.51;94502.34;5008227;28;20124;-72
2021/01/28 02:08:27;;;;;;;25.73;12.73;;;;;;;-4.30;87.11;94502.69;5046029;28;20037;-72
2021/01/28 02:11:27;;;;;;;27.83;14.18;;;;;;;-4.26;87.48;94521.00;5034801;28;20056;-72
2021/01/28 02:14:15;;;;;;;28.25;14.40;;;;;;;-4.23;87.64;94525.81;5046325;28;20098;-72
2021/01/28 02:17:08;;;;;;;29.52;14.27;;;;;;;-4.38;87.84;94507.72;5028956;28;20159;-72
2021/01/28 02:20:40;;;;;;;32.47;15.18;;;;;;;-4.22;87.78;94527.38;5032607;28;20053;-72
2021/01/28 02:23:33;;;;;;;25.98;13.70;;;;;;;-4.32;87.79;94521.56;5028318;28;20041;-72
2021/01/28 02:26:01;;;;;;;29.75;13.75;;;;;;;-4.24;87.68;94534.38;5028007;28;20041;-72
2021/01/28 02:28:31;;;;;;;34.10;15.02;;;;;;;-4.30;87.59;94529.88;5028556;28;20131;-72
2021/01/28 02:30:59;;;;;;;26.15;13.82;;;;;;;-4.39;87.88;94528.19;5045659;28;20049;-72
2021/01/28 02:33:38;;;;;;;32.95;15.50;;;;;;;-4.30;87.98;94529.88;5028452;28;20433;-72
2021/01/28 02:36:33;;;;;;;30.60;15.15;;;;;;;-4.28;88.21;94538.16;5000917;28;20053;-72
2021/01/28 02:39:27;;;;;;;32.60;13.63;;;;;;;-4.26;88.13;94531.19;5028591;28;20056;-73
2021/01/28 02:42:07;;;;;;;28.98;14.98;;;;;;;-4.18;87.89;94533.75;5012795;28;20147;-73
2021/01/28 02:44:33;;;;;;;28.17;14.13;;;;;;;-4.26;88.50;94531.97;5028589;28;20041;-72
2021/01/28 02:47:32;;;;;;;29.05;14.10;;;;;;;-4.29;88.25;94536.53;5045618;28;20048;-73
2021/01/28 02:50:22;;;;;;;27.23;12.77;;;;;;;-4.40;88.43;94519.78;5043284;28;20060;-72
2021/01/28 02:52:53;;;;;;;26.52;14.05;;;;;;;-4.43;88.72;94522.59;5028232;28;20128;-72
2021/01/28 02:55:23;;;;;;;27.52;14.13;;;;;;;-4.33;88.57;94533.50;5027409;28;20045;-72
2021/01/28 02:57:50;;;;;;;31.67;15.18;;;;;;;-4.44;88.50;94519.25;5046285;28;20037;-72
2021/01/28 03:00:20;;;;;;;29.73;13.73;;;;;;;-4.34;88.64;94538.72;5028545;28;20044;-73
2021/01/28 03:02:50;;;;;;;27.17;13.68;;;;;;;-4.38;88.79;94537.44;5028566;28;20524;-72
2021/01/28 03:05:25;;;;;;;28.67;14.40;;;;;;;-4.43;88.82;94531.03;5028639;28;20045;-72
2021/01/28 03:07:52;;;;;;;29.52;13.90;;;;;;;-4.31;88.74;94533.34;5027269;28;20490;-72
2021/01/28 03:10:21;;;;;;;25.67;13.48;;;;;;;-4.27;88.80;94532.94;5045785;28;20049;-72
2021/01/28 03:13:02;;;;;;;32.00;15.77;;;;;;;-4.28;88.62;94533.06;5028338;28;20045;-72
2021/01/28 03:15:49;;;;;;;28.58;14.68;;;;;;;-4.31;88.26;94528.28;5028080;28;20041;-72
2021/01/28 03:18:16;;;;;;;33.17;14.90;;;;;;;-4.38;88.55;94522.16;5046375;28;20045;-72
2021/01/28 03:20:44;;;;;;;27.88;14.02;;;;;;;-4.29;88.41;94536.53;5027373;28;20052;-72
2021/01/28 03:23:30;;;;;;;23.40;13.50;;;;;;;-4.28;88.08;94530.53;5027855;28;20042;-72
2021/01/28 03:26:15;;;;;;;28.77;14.68;;;;;;;-4.32;88.12;94522.41;5027311;28;20474;-72
2021/01/28 03:28:43;;;;;;;35.22;15.25;;;;;;;-4.34;88.14;94513.31;5028184;28;20084;-72
2021/01/28 03:31:16;;;;;;;29.90;14.50;;;;;;;-4.23;87.91;94530.88;5028098;28;20037;-72
2021/01/28 03:33:43;;;;;;;31.58;15.45;;;;;;;-4.20;87.66;94530.56;5047728;28;20037;-72
2021/01/28 03:36:10;;;;;;;28.33;15.27;;;;;;;-4.24;87.67;94524.19;5031521;28;20045;-73
2021/01/28 03:38:37;;;;;;;26.15;13.57;;;;;;;-4.45;87.35;94497.34;5030868;28;20102;-73
2021/01/28 03:41:04;;;;;;;29.17;13.75;;;;;;;-4.26;87.29;94508.28;5049531;28;20119;-72
2021/01/28 03:43:31;;;;;;;32.63;14.73;;;;;;;-4.23;86.94;94518.97;5031659;28;20041;-72
2021/01/28 03:45:58;;;;;;;30.13;14.50;;;;;;;-4.39;86.97;94515.47;5015404;28;20098;-72
2021/01/28 03:48:30;;;;;;;30.63;14.23;;;;;;;-4.31;86.78;94518.09;5031754;28;20049;-72
2021/01/28 03:51:21;;;;;;;27.50;13.60;;;;;;;-4.49;86.79;94511.28;5049086;28;20048;-72
2021/01/28 03:54:08;;;;;;;24.45;13.02;;;;;;;-4.32;86.23;94524.13;5027972;28;20136;-72
2021/01/28 03:56:43;;;;;;;28.02;14.88;;;;;;;-4.47;86.01;94524.63;5049830;28;20043;-72
2021/01/28 03:59:10;;;;;;;28.38;13.02;;;;;;;-4.55;86.25;94516.97;5048958;28;20041;-72
2021/01/28 04:01:55;;;;;;;25.58;12.05;;;;;;;-4.45;85.54;94522.78;5031405;28;20045;-72
2021/01/28 04:04:42;;;;;;;31.58;14.70;;;;;;;-4.47;85.24;94503.50;4994572;28;20059;-72
2021/01/28 04:07:47;;;;;;;28.40;13.48;;;;;;;-4.57;85.14;94508.69;4968368;28;20053;-72
2021/01/28 04:10:25;;;;;;;29.48;14.30;;;;;;;-4.51;85.15;94518.25;4951927;28;20042;-72
2021/01/28 04:12:52;;;;;;;21.70;12.05;;;;;;;-4.58;84.89;94517.25;4994525;28;20461;-72
2021/01/28 04:15:28;;;;;;;25.95;13.75;;;;;;;-4.59;85.01;94515.66;5029815;28;20053;-72
2021/01/28 04:17:55;;;;;;;28.30;13.57;;;;;;;-4.57;85.24;94513.75;5029948;28;20099;-72
2021/01/28 04:20:34;;;;;;;25.83;14.35;;;;;;;-4.57;84.82;94518.03;5015142;28;20438;-72
2021/01/28 04:23:05;;;;;;;34.78;15.07;;;;;;;-4.63;85.14;94519.41;5030832;28;20041;-72
2021/01/28 04:25:42;;;;;;;29.88;14.65;;;;;;;-4.71;85.19;94511.72;5029270;28;20044;-72
2021/01/28 04:28:09;;;;;;;30.10;14.27;;;;;;;-4.68;85.28;94511.41;5030930;28;20056;-72
2021/01/28 04:30:47;;;;;;;30.58;13.88;;;;;;;-4.81;85.41;94504.97;5016397;28;20057;-72
2021/01/28 04:33:14;;;;;;;32.30;14.65;;;;;;;-4.83;85.27;94526.38;5049098;28;20045;-72
2021/01/28 04:35:56;;;;;;;27.85;14.38;;;;;;;-4.96;85.49;94518.31;5030277;28;20045;-72
2021/01/28 04:38:22;;;;;;;32.55;15.27;;;;;;;-5.05;85.27;94504.72;5029440;28;20528;-73
2021/01/28 04:41:09;;;;;;;32.60;16.25;;;;;;;-5.01;85.01;94516.19;5015076;28;20522;-72
2021/01/28 04:43:38;;;;;;;29.40;14.73;;;;;;;-4.99;84.91;94516.84;5029641;28;20060;-72
2021/01/28 04:46:27;;;;;;;79.53;25.85;;;;;;;-4.93;85.06;94529.00;5043910;28;20399;-72
2021/01/28 04:49:16;;;;;;;259.75;74.68;;;;;;;-4.89;84.51;94535.38;5032588;28;20489;-72
2021/01/28 04:52:04;;;;;;;460.42;124.15;;;;;;;-4.87;84.42;94548.72;5046866;28;20076;-72
2021/01/28 04:54:36;;;;;;;168.45;48.97;;;;;;;-4.83;83.69;94546.69;5030370;28;20459;-72
2021/01/28 04:57:13;;;;;;;304.40;85.80;;;;;;;-4.88;83.75;94552.22;5048284;28;20068;-71
2021/01/28 04:59:53;;;;;;;432.00;117.95;;;;;;;-4.98;84.04;94543.84;5030121;28;20047;-72
2021/01/28 05:02:25;;;;;;;;;;;;;;;-4.99;84.69;94554.94;5030920;28;20075;-72
2021/01/28 05:05:15;;;;;;;374.02;120.70;;;;;;;-4.97;85.10;94553.06;5047704;28;19925;-72
2021/01/28 05:08:16;;;;;;;99.72;44.45;;;;;;;-4.92;84.98;94561.06;5029865;28;20047;-72
2021/01/28 05:11:28;;;;;;;89.82;44.03;;;;;;;-5.04;84.74;94534.25;4992625;28;20194;-72
2021/01/28 05:14:28;;;;;;;71.57;36.05;;;;;;;-4.94;85.17;94565.47;5047190;28;20048;-72
2021/01/28 05:17:29;;;;;;;33.95;16.98;;;;;;;-4.98;85.15;94566.72;5017005;28;20063;-72
2021/01/28 05:20:20;;;;;;;28.90;14.73;;;;;;;-4.98;85.32;94568.47;5047451;28;20044;-72
2021/01/28 05:23:29;;;;;;;39.90;18.75;;;;;;;-4.97;85.83;94573.38;5030273;28;20060;-74
2021/01/28 05:25:57;;;;;;;31.27;16.33;;;;;;;-5.18;86.29;94582.03;5027772;28;20041;-74
2021/01/28 05:28:37;;;;;;;38.15;16.20;;;;;;;-5.11;86.51;94576.38;5028435;28;20491;-74
2021/01/28 05:31:34;;;;;;;33.88;16.92;;;;;;;-5.27;87.00;94572.72;5041625;28;20076;-74
2021/01/28 05:34:29;;;;;;;36.50;18.98;;;;;;;-5.27;87.94;94582.88;5029456;28;20514;-73
2021/01/28 05:37:09;;;;;;;41.22;17.80;;;;;;;-5.21;88.89;94582.31;5030226;28;20053;-74
2021/01/28 05:40:13;;;;;;;54.15;24.00;;;;;;;-5.20;88.52;94573.75;5046326;28;20124;-74
2021/01/28 05:42:48;;;;;;;47.38;22.63;;;;;;;-5.05;88.47;94591.88;5027961;28;20037;-74
2021/01/28 05:45:24;;;;;;;47.28;21.45;;;;;;;-4.99;88.34;94598.13;5029179;28;20405;-74
2021/01/28 05:48:22;;;;;;;46.65;21.98;;;;;;;-4.90;88.71;94589.66;5046681;28;20059;-74
2021/01/28 05:51:11;;;;;;;53.50;25.25;;;;;;;-4.85;88.49;94592.56;5028699;28;20484;-74
2021/01/28 05:53:39;;;;;;;42.13;19.90;;;;;;;-4.80;88.54;94599.78;5027540;28;20072;-74
2021/01/28 05:56:15;;;;;;;42.20;21.33;;;;;;;-4.86;88.36;94591.00;5045821;28;20040;-74
2021/01/28 05:58:53;;;;;;;33.03;16.70;;;;;;;-4.74;87.63;94609.34;5046184;28;20427;-72
2021/01/28 06:01:46;;;;;;;42.95;20.33;;;;;;;-4.65;87.28;94607.72;5028516;28;20111;-72
2021/01/28 06:05:21;;;;;;;38.35;18.55;;;;;;;-4.63;86.96;94610.91;5031559;28;20121;-73
2021/01/28 06:08:02;;;;;;;36.80;18.65;;;;;;;-4.59;86.08;94609.69;4953478;28;20107;-72
2021/01/28 06:11:06;;;;;;;29.60;15.20;;;;;;;-4.69;85.36;94596.25;5029206;28;20084;-73
2021/01/28 06:14:17;;;;;;;24.90;12.85;;;;;;;-4.66;85.23;94606.91;5028554;28;20055;-73
2021/01/28 06:17:15;;;;;;;44.50;20.55;;;;;;;-4.64;84.95;94609.31;5028705;28;20131;-73
2021/01/28 06:20:49;;;;;;;48.22;22.50;;;;;;;-4.75;85.06;94623.03;5037516;28;20045;-74
2021/01/28 06:23:50;;;;;;;41.85;18.70;;;;;;;-4.96;86.98;94628.31;5045982;28;20120;-73
2021/01/28 06:26:22;;;;;;;46.70;20.17;;;;;;;-5.00;87.96;94624.47;5027280;28;20037;-73
2021/01/28 06:29:23;;;;;;;39.72;19.25;;;;;;;-4.92;88.48;94623.78;5028360;28;20507;-73
2021/01/28 06:32:17;;;;;;;37.30;17.73;;;;;;;-4.92;88.47;94622.03;5046067;28;20102;-73
2021/01/28 06:35:36;;;;;;;47.22;21.58;;;;;;;-4.91;88.75;94617.75;5046914;28;20075;-74
2021/01/28 06:38:29;;;;;;;43.38;20.00;;;;;;;-4.87;88.97;94630.03;5045766;28;20063;-74
2021/01/28 06:41:21;;;;;;;42.22;19.35;;;;;;;-4.87;88.55;94630.03;5044821;28;20055;-73
2021/01/28 06:44:31;;;;;;;44.92;19.75;;;;;;;-5.05;88.38;94611.41;5028920;28;20541;-74
2021/01/28 06:47:49;;;;;;;40.33;20.20;;;;;;;-4.81;88.39;94629.47;5015053;28;20527;-74
2021/01/28 06:50:38;;;;;;;48.08;21.02;;;;;;;-4.70;87.95;94620.03;5028039;28;20514;-73
2021/01/28 06:53:08;;;;;;;37.75;19.65;;;;;;;-4.70;88.03;94641.19;5027320;28;20072;-74
2021/01/28 06:56:21;;;;;;;41.08;18.88;;;;;;;-4.69;87.76;94634.34;5015892;28;20134;-74
2021/01/28 06:59:37;;;;;;;39.88;17.48;;;;;;;-4.65;87.68;94626.28;5028780;28;20056;-72
2021/01/28 07:02:26;;;;;;;41.35;18.60;;;;;;;-4.66;87.69;94636.63;5027699;28;20041;-72
2021/01/28 07:05:17;;;;;;;38.22;19.63;;;;;;;-4.66;87.31;94636.63;5028444;28;20041;-74
2021/01/28 07:08:02;;;;;;;39.03;18.80;;;;;;;-4.68;87.32;94641.03;5029157;28;20048;-74
2021/01/28 07:10:54;;;;;;;44.78;20.25;;;;;;;-4.69;87.14;94647.06;5047738;28;20059;-74
2021/01/28 07:13:41;;;;;;;41.13;19.40;;;;;;;-4.74;87.09;94649.22;5014322;28;20047;-74
2021/01/28 07:16:49;;;;;;;43.10;20.23;;;;;;;-4.64;87.35;94655.84;5045332;28;20099;-74
2021/01/28 07:19:21;;;;;;;40.83;20.35;;;;;;;-4.52;87.20;94656.47;5049976;28;20029;-73
2021/01/28 07:21:51;;;;;;;41.55;19.35;;;;;;;-4.38;87.06;94654.38;5015934;28;20186;-73
2021/01/28 07:24:35;;;;;;;40.80;20.33;;;;;;;-4.22;86.69;94649.47;5032010;28;20534;-73
2021/01/28 07:27:08;;;;;;;50.53;23.50;;;;;;;-4.09;86.12;94644.84;5031266;28;21021;-74
2021/01/28 07:29:39;;;;;;;40.58;20.73;;;;;;;-3.80;85.67;94659.03;5032176;28;20128;-73
2021/01/28 07:32:08;;;;;;;43.58;21.48;;;;;;;-3.74;85.02;94648.28;5032162;28;20134;-74
2021/01/28 07:35:24;;;;;;;30.25;15.05;;;;;;;-3.48;83.22;94657.69;5030712;28;20124;-73
2021/01/28 07:38:30;;;;;;;36.10;16.98;;;;;;;-3.39;83.04;94656.81;5032109;28;20045;-73
2021/01/28 07:41:28;;;;;;;69.72;32.47;;;;;;;-3.24;82.66;94664.72;5028449;28;20056;-74
2021/01/28 07:44:26;;;;;;;51.17;25.33;;;;;;;-2.98;82.19;94669.78;5049981;28;20052;-74
2021/01/28 07:47:03;;;;;;;31.85;16.45;;;;;;;-2.83;81.10;94666.69;5031756;28;21920;-73
2021/01/28 07:49:38;;;;;;;30.55;16.10;;;;;;;-2.89;80.65;94656.13;5030573;28;20073;-73
2021/01/28 07:52:16;;;;;;;26.90;14.65;;;;;;;-2.73;80.18;94667.38;5031226;28;20055;-73
2021/01/28 07:54:47;;;;;;;29.95;15.00;;;;;;;-2.63;80.29;94662.97;5031103;28;20045;-74
2021/01/28 07:57:29;;;;;;;21.83;12.32;;;;;;;-2.71;80.20;94660.38;5048802;28;20159;-73
2021/01/28 07:59:58;;;;;;;27.05;15.80;;;;;;;-2.73;80.47;94659.72;5032004;28;20402;-73
2021/01/28 08:02:39;;;;;;;26.73;12.48;;;;;;;-2.55;80.60;94660.44;5049061;28;20523;-73
2021/01/28 08:05:10;;;;;;;29.85;15.10;;;;;;;-2.46;81.02;94657.91;5031510;28;20047;-73
2021/01/28 08:07:44;;;;;;;33.60;15.63;;;;;;;-2.21;80.71;94664.69;5031262;28;20043;-74
2021/01/28 08:10:38;;;;;;;23.25;12.60;;;;;;;-2.24;79.59;94662.44;5048182;28;20060;-74
2021/01/28 08:13:25;;;;;;;27.63;14.93;;;;;;;-2.21;79.68;94672.31;5049047;28;20043;-74
2021/01/28 08:16:06;;;;;;;30.05;14.35;;;;;;;-2.24;79.05;94667.53;5048356;28;20128;-74
2021/01/28 08:18:40;;;;;;;33.83;16.52;;;;;;;-2.35;79.82;94670.38;5031297;28;20044;-73
2021/01/28 08:21:13;;;;;;;35.75;17.25;;;;;;;-2.26;80.26;94668.66;5048064;28;20461;-74
2021/01/28 08:23:42;;;;;;;36.70;16.58;;;;;;;-2.14;80.12;94670.75;5049060;28;20060;-74
2021/01/28 08:26:15;;;;;;;40.95;20.77;;;;;;;-2.00;79.71;94658.31;5049011;28;20447;-74
2021/01/28 08:28:44;;;;;;;24.52;12.88;;;;;;;-2.10;80.25;94657.69;5047282;28;20044;-74
2021/01/28 08:31:26;;;;;;;29.38;15.13;;;;;;;-2.04;80.44;94662.16;5048543;28;20099;-74
2021/01/28 08:33:58;;;;;;;23.77;13.20;;;;;;;-2.03;79.99;94679.06;5048169;28;20052;-73
2021/01/28 08:36:33;;;;;;;26.67;13.38;;;;;;;-2.09;80.55;94664.38;5047280;28;20037;-74
2021/01/28 08:39:08;;;;;;;;;;;;;;;-1.93;80.35;94669.50;5047819;28;20505;-74
2021/01/28 08:41:35;;;;;;;;;;;;;;;-2.01;80.26;94664.41;5048650;28;19924;-74
2021/01/28 08:44:28;;;;;;;25.23;12.65;;;;;;;-2.13;80.09;94654.47;5029265;28;19931;-75
2021/01/28 08:47:07;;;;;;;22.52;13.30;;;;;;;-2.16;80.16;94675.22;5043708;28;20060;-75
2021/01/28 08:49:33;;;;;;;20.02;11.52;;;;;;;-2.24;80.47;94667.53;5029748;28;20128;-75
2021/01/28 08:52:04;;;;;;;17.45;8.80;;;;;;;-2.14;79.19;94682.72;5030497;28;20044;-74
2021/01/28 08:54:36;;;;;;;15.43;7.53;;;;;;;-2.19;78.84;94685.72;5047596;28;20048;-74
2021/01/28 08:57:05;;;;;;;18.67;10.82;;;;;;;-2.24;79.43;94693.03;5029711;28;20099;-74
2021/01/28 08:59:44;;;;;;;20.83;10.73;;;;;;;-2.31;79.69;94690.31;5014194;28;20123;-75
2021/01/28 09:02:14;;;;;;;29.73;15.55;;;;;;;-2.17;79.67;94688.91;5048111;28;20036;-75
2021/01/28 09:04:46;;;;;;;31.38;15.80;;;;;;;-2.03;79.85;94686.72;5048601;28;20126;-75
2021/01/28 09:08:08;;;;;;;43.10;16.73;;;;;;;-2.03;79.13;94690.06;5030653;28;20124;-74
2021/01/28 09:10:42;;;;;;;21.02;10.75;;;;;;;-2.07;78.47;94713.50;4946112;29;20596;-75
2021/01/28 09:13:17;;;;;;;22.02;12.38;;;;;;;-2.13;79.42;94702.94;5034492;28;20061;-75
2021/01/28 09:15:44;;;;;;;21.88;11.10;;;;;;;-2.17;78.71;94700.88;5047397;28;20049;-75
2021/01/28 09:18:28;;;;;;;18.92;8.85;;;;;;;-2.16;78.69;94695.63;5048135;28;20037;-75
2021/01/28 09:21:17;;;;;;;19.27;10.85;;;;;;;-2.09;78.96;94684.78;5028724;28;20051;-75
2021/01/28 09:24:00;;;;;;;29.63;14.10;;;;;;;-1.81;79.06;94703.97;5048143;28;20047;-74
2021/01/28 09:26:35;;;;;;;30.15;13.52;;;;;;;-1.77;77.99;94704.47;5048036;28;20038;-75
2021/01/28 09:29:13;;;;;;;16.35;9.00;;;;;;;-1.74;77.19;94710.06;5046266;28;20123;-75
2021/01/28 09:31:39;;;;;;;22.70;10.07;;;;;;;-1.56;76.80;94704.00;5047472;28;20080;-75
2021/01/28 09:34:12;;;;;;;20.48;10.35;;;;;;;-1.39;75.97;94697.97;5047648;28;20091;-75
2021/01/28 09:36:39;;;;;;;22.30;12.50;;;;;;;-1.23;76.05;94691.22;5047892;28;20055;-75
2021/01/28 09:39:32;;;;;;;26.40;13.70;;;;;;;-1.09;75.49;94693.13;5047501;28;20040;-75
2021/01/28 09:42:25;;;;;;;13.13;7.68;;;;;;;-1.10;74.27;94686.41;5036354;28;20056;-75
2021/01/28 09:45:16;;;;;;;17.63;8.02;;;;;;;-1.14;73.61;94695.38;5028827;28;20487;-75
2021/01/28 09:47:56;;;;;;;12.43;7.35;;;;;;;-1.00;72.85;94679.38;5047678;28;20116;-74
2021/01/28 09:50:24;;;;;;;14.70;9.65;;;;;;;-1.09;72.40;94682.13;5046634;28;20045;-75
2021/01/28 09:52:51;;;;;;;15.05;9.40;;;;;;;-1.20;72.27;94665.34;5047362;28;20539;-75
2021/01/28 09:55:27;;;;;;;29.40;14.20;;;;;;;-1.54;74.12;94638.25;5046828;28;20090;-75
2021/01/28 09:57:54;;;;;;;23.88;10.98;;;;;;;-1.28;73.68;94678.91;5046268;28;20616;-75
2021/01/28 10:00:22;;;;;;;21.13;10.13;;;;;;;-1.06;72.62;94682.59;5047029;28;20041;-75
2021/01/28 10:02:55;;;;;;;27.05;12.50;;;;;;;-0.93;72.81;94688.97;5046707;28;20131;-75
2021/01/28 10:05:26;;;;;;;17.07;8.63;;;;;;;-0.84;71.89;94675.97;5029070;28;20482;-74
2021/01/28 10:07:52;;;;;;;18.25;8.88;;;;;;;-0.69;72.42;94673.53;5047192;28;20117;-73
2021/01/28 10:10:22;;;;;;;28.92;14.95;;;;;;;-0.65;70.85;94656.91;5047204;28;20049;-74
2021/01/28 10:12:52;;;;;;;20.50;8.40;;;;;;;-0.62;70.59;94656.56;5046899;28;20460;-74
2021/01/28 10:15:18;;;;;;;15.05;7.68;;;;;;;-0.88;71.16;94666.22;5018461;28;20072;-74
2021/01/28 10:17:45;;;;;;;13.20;7.45;;;;;;;-0.80;71.11;94663.66;5007369;28;20404;-74
2021/01/28 10:20:13;;;;;;;16.23;9.15;;;;;;;-0.39;70.95;94659.19;5006255;28;20100;-73
2021/01/28 10:22:42;;;;;;;28.10;11.65;;;;;;;-0.12;68.90;94653.78;5006031;28;20045;-74
2021/01/28 10:25:13;;;;;;;14.75;7.32;;;;;;;0.01;67.75;94654.03;5007114;28;20410;-74
2021/01/28 10:27:40;;;;;;;9.63;5.50;;;;;;;-0.10;67.42;94662.09;5003767;28;20054;-74
2021/01/28 10:30:08;;;;;;;11.52;6.18;;;;;;;-0.68;68.40;94639.34;5005218;28;20516;-74
2021/01/28 10:32:35;;;;;;;11.95;7.25;;;;;;;-0.78;68.94;94648.94;5004744;28;20052;-74
2021/01/28 10:35:02;;;;;;;11.68;5.78;;;;;;;-0.81;68.97;94651.81;5004460;28;20045;-74
2021/01/28 10:37:29;;;;;;;9.23;5.60;;;;;;;-0.88;69.04;94658.56;5006846;28;20408;-73
2021/01/28 10:39:55;;;;;;;11.57;5.90;;;;;;;-0.57;68.22;94655.28;5004580;28;20046;-75
2021/01/28 10:42:31;;;;;;;13.55;8.40;;;;;;;-0.45;68.30;94646.25;5005862;28;20038;-74
2021/01/28 10:44:59;;;;;;;11.60;5.03;;;;;;;-0.76;67.06;94639.34;5005870;28;20038;-75
2021/01/28 10:47:26;;;;;;;10.85;5.88;;;;;;;-0.57;67.29;94645.84;5005208;28;20065;-74
2021/01/28 10:50:10;;;;;;;7.82;5.05;;;;;;;-0.71;66.92;94644.78;5005134;28;20048;-74
2021/01/28 10:52:37;;;;;;;7.63;4.50;;;;;;;-0.35;66.76;94644.28;5006521;28;20121;-74
2021/01/28 10:55:05;;;;;;;8.20;4.57;;;;;;;-0.27;66.76;94649.38;5006298;28;20076;-75
2021/01/28 10:57:32;;;;;;;9.50;5.65;;;;;;;-0.05;65.29;94657.28;5006933;28;20111;-74
2021/01/28 10:59:59;;;;;;;10.55;6.22;;;;;;;0.02;65.29;94647.94;5004078;28;20069;-74
2021/01/28 11:02:25;;;;;;;13.85;6.70;;;;;;;0.39;65.21;94656.63;5006695;28;20038;-75
2021/01/28 11:04:52;;;;;;;9.32;6.20;;;;;;;0.37;63.20;94663.69;5006928;28;20474;-75
2021/01/28 11:07:18;;;;;;;9.00;6.28;;;;;;;0.32;64.51;94653.16;5005167;28;20046;-74
2021/01/28 11:09:44;;;;;;;11.57;6.22;;;;;;;0.19;65.54;94662.22;5006938;28;20045;-75
2021/01/28 11:12:11;;;;;;;10.95;6.75;;;;;;;0.28;65.45;94660.41;5006833;28;20034;-74
2021/01/28 11:14:38;;;;;;;13.05;7.65;;;;;;;0.44;66.33;94656.91;5007507;28;20038;-74
2021/01/28 11:17:04;;;;;;;10.50;6.20;;;;;;;0.42;66.42;94643.50;5045102;28;20053;-75
2021/01/28 11:19:31;;;;;;;20.02;9.77;;;;;;;0.73;66.15;94652.84;5045646;28;20072;-75
2021/01/28 11:21:57;;;;;;;11.60;6.40;;;;;;;0.99;64.03;94669.59;5028046;28;20067;-74
2021/01/28 11:24:23;;;;;;;9.25;5.75;;;;;;;1.02;64.32;94648.72;5044440;28;20044;-74
2021/01/28 11:26:50;;;;;;;7.10;4.68;;;;;;;1.09;63.83;94652.97;5044951;28;20120;-75
2021/01/28 11:29:22;;;;;;;13.70;7.60;;;;;;;0.94;66.21;94650.41;5040447;28;20152;-75
2021/01/28 11:31:48;;;;;;;11.43;6.25;;;;;;;0.71;64.38;94624.03;5027728;28;20037;-75
2021/01/28 11:34:14;;;;;;;15.93;8.13;;;;;;;0.79;65.83;94654.69;5044863;28;20041;-74
2021/01/28 11:36:41;;;;;;;14.27;7.50;;;;;;;0.73;65.72;94663.09;5045752;28;20178;-75
2021/01/28 11:39:07;;;;;;;15.85;8.38;;;;;;;0.40;66.42;94648.00;5027655;28;20064;-76
2021/01/28 11:41:34;;;;;;;18.58;8.68;;;;;;;0.16;68.30;94646.38;5027549;28;20124;-76
2021/01/28 11:44:01;;;;;;;15.35;7.93;;;;;;;0.45;67.15;94645.72;5027999;28;20479;-75
2021/01/28 11:46:27;;;;;;;14.02;6.85;;;;;;;0.47;67.26;94643.78;5044024;28;20044;-75
2021/01/28 11:48:54;;;;;;;15.15;8.07;;;;;;;0.87;66.11;94649.50;5026815;28;20502;-76
2021/01/28 11:51:21;;;;;;;15.52;8.13;;;;;;;1.04;66.06;94654.47;5044550;28;20041;-77
2021/01/28 11:53:59;;;;;;;12.73;6.38;;;;;;;1.14;65.84;94652.44;5011265;28;20467;-76
2021/01/28 11:56:26;;;;;;;11.05;7.00;;;;;;;1.24;65.70;94635.03;5046734;28;20041;-76
2021/01/28 11:58:52;;;;;;;14.02;7.43;;;;;;;1.52;65.21;94642.06;5046078;28;20044;-76
2021/01/28 12:01:19;;;;;;;14.45;8.35;;;;;;;1.36;65.08;94642.28;5047101;28;20041;-76
2021/01/28 12:03:45;;;;;;;15.20;7.40;;;;;;;1.34;64.74;94640.66;5047124;28;20045;-77
2021/01/28 12:06:12;;;;;;;12.02;7.03;;;;;;;1.16;64.47;94642.81;5047101;28;20033;-77
2021/01/28 12:08:38;;;;;;;14.63;7.38;;;;;;;1.06;63.75;94637.13;5029260;28;20114;-76
2021/01/28 12:11:05;;;;;;;10.35;5.88;;;;;;;1.03;63.65;94642.63;5046956;28;20048;-76